Time;durP1;ratioP1;P1;durP2;ratioP2;P2;SDS_P1;SDS_P2;PMS_P1;PMS_P2;Temp;Humidity;BMP_temperature;BMP_pressure;BME280_temperature;BME280_humidity;BME280_pressure;Samples;Min_cycle;Max_cycle;Signal;HPM_P1;HPM_P2
2022/03/24 00:01:48;;;;;;;7.80;6.42;;;;;;;8.80;36.21;97440.47;1752694;81;20944;-78
2022/03/24 00:04:14;;;;;;;9.73;6.70;;;;;;;8.74;35.70;97440.55;1767469;81;21056;-78
2022/03/24 00:06:40;;;;;;;8.45;7.03;;;;;;;8.72;35.59;97444.58;1732666;81;21048;-78
2022/03/24 00:09:06;;;;;;;8.08;6.97;;;;;;;8.69;35.48;97444.06;1734421;81;21048;-78
2022/03/24 00:11:31;;;;;;;7.97;6.50;;;;;;;8.66;36.01;97441.28;1755548;80;21001;-78
2022/03/24 00:13:59;;;;;;;10.28;7.62;;;;;;;8.63;36.00;97442.05;1737450;83;21044;-78
2022/03/24 00:16:26;;;;;;;8.78;6.55;;;;;;;8.55;36.09;97442.75;1737953;83;20969;-78
2022/03/24 00:18:52;;;;;;;9.13;7.15;;;;;;;8.54;35.82;97448.08;1752707;81;20992;-78
2022/03/24 00:21:18;;;;;;;9.73;7.40;;;;;;;8.49;36.27;97442.05;1767689;81;21036;-78
2022/03/24 00:23:44;;;;;;;9.28;6.65;;;;;;;8.46;36.40;97442.78;1752676;81;20984;-78
2022/03/24 00:26:10;;;;;;;8.83;6.90;;;;;;;8.42;36.52;97435.30;1744558;81;20945;-78
2022/03/24 00:28:36;;;;;;;9.60;6.35;;;;;;;8.37;36.30;97437.98;1762887;81;20996;-78
2022/03/24 00:31:01;;;;;;;9.53;7.05;;;;;;;8.32;36.62;97434.51;1732886;81;21030;-78
2022/03/24 00:33:28;;;;;;;11.15;9.05;;;;;;;8.26;37.14;97428.58;1753065;81;20954;-78
2022/03/24 00:35:55;;;;;;;10.32;7.12;;;;;;;8.19;37.90;97422.35;1745091;81;20997;-78
2022/03/24 00:38:21;;;;;;;10.53;7.92;;;;;;;8.12;37.25;97421.27;1760333;81;20933;-78
2022/03/24 00:40:46;;;;;;;10.88;7.47;;;;;;;8.09;37.28;97422.84;1753122;81;20996;-78
2022/03/24 00:43:12;;;;;;;9.10;6.67;;;;;;;8.06;37.41;97419.25;1756619;81;20979;-78
2022/03/24 00:45:41;;;;;;;11.00;7.40;;;;;;;8.04;36.64;97427.64;1747761;82;20972;-78
2022/03/24 00:48:10;;;;;;;11.68;7.83;;;;;;;8.02;36.57;97422.60;1745274;82;20956;-78
2022/03/24 00:50:36;;;;;;;11.45;7.97;;;;;;;7.99;37.54;97421.59;1741982;81;21099;-78
2022/03/24 00:53:02;;;;;;;9.73;7.30;;;;;;;7.96;37.69;97415.86;1760126;81;21008;-78
2022/03/24 00:55:28;;;;;;;10.15;7.35;;;;;;;7.92;37.93;97420.50;1764883;81;20965;-78
2022/03/24 00:57:55;;;;;;;9.45;7.35;;;;;;;7.87;37.76;97415.42;1765397;81;21045;-78
2022/03/24 01:00:25;;;;;;;9.83;6.95;;;;;;;7.83;37.47;97415.70;1752751;81;21032;-78
2022/03/24 01:02:52;;;;;;;11.10;7.90;;;;;;;7.82;37.80;97408.08;1721345;81;21441;-78
2022/03/24 01:05:20;;;;;;;13.18;8.73;;;;;;;7.78;36.98;97412.70;1762603;81;21039;-78
2022/03/24 01:07:46;;;;;;;12.65;9.20;;;;;;;7.78;38.06;97414.47;1745834;81;20972;-78
2022/03/24 01:10:15;;;;;;;12.47;7.83;;;;;;;7.69;37.84;97413.55;1734920;82;21423;-78
2022/03/24 01:12:42;;;;;;;10.32;8.00;;;;;;;7.70;37.88;97416.47;1735321;81;21041;-78
2022/03/24 01:15:10;;;;;;;13.38;9.30;;;;;;;7.67;38.21;97416.75;1743690;81;20933;-78
2022/03/24 01:17:36;;;;;;;10.82;8.83;;;;;;;7.63;38.43;97404.20;1740751;81;21020;-78
2022/03/24 01:20:03;;;;;;;9.60;7.35;;;;;;;7.57;38.74;97412.53;1733618;81;20972;-78
2022/03/24 01:22:29;;;;;;;11.68;8.10;;;;;;;7.52;38.12;97407.30;1741740;81;20973;-78
2022/03/24 01:24:56;;;;;;;10.70;8.00;;;;;;;7.48;39.32;97405.95;1747399;81;20945;-78
2022/03/24 01:27:26;;;;;;;12.10;8.43;;;;;;;7.40;38.92;97403.69;1743643;81;21037;-78
2022/03/24 01:29:54;;;;;;;12.37;9.23;;;;;;;7.36;38.20;97402.34;1753954;81;20938;-78
2022/03/24 01:32:21;;;;;;;13.65;8.95;;;;;;;7.35;39.57;97400.71;1760933;81;20994;-78
2022/03/24 01:34:48;;;;;;;11.12;7.95;;;;;;;7.28;39.45;97391.85;1761284;81;21312;-78
2022/03/24 01:37:14;;;;;;;12.50;9.05;;;;;;;7.23;39.60;97396.96;1757984;81;21002;-78
2022/03/24 01:39:40;;;;;;;13.75;9.53;;;;;;;7.19;39.62;97386.56;1747190;81;20957;-78
2022/03/24 01:42:06;;;;;;;11.78;8.23;;;;;;;7.18;39.32;97387.52;1735072;83;20977;-78
2022/03/24 01:44:32;;;;;;;12.60;8.70;;;;;;;7.15;39.42;97391.64;1739421;81;20968;-78
2022/03/24 01:47:02;;;;;;;10.08;8.95;;;;;;;7.13;39.62;97389.67;1688620;85;20941;-78
2022/03/24 01:49:32;;;;;;;12.47;8.63;;;;;;;7.08;39.57;97389.74;1764912;81;20989;-78
2022/03/24 01:51:58;;;;;;;13.38;8.65;;;;;;;7.05;39.59;97391.31;1743210;81;21009;-78
2022/03/24 01:54:27;;;;;;;13.03;9.38;;;;;;;7.01;39.94;97392.53;1737601;83;20992;-78
2022/03/24 01:56:53;;;;;;;12.18;9.63;;;;;;;6.96;39.99;97383.06;1737590;83;20989;-78
2022/03/24 01:59:19;;;;;;;12.65;9.33;;;;;;;6.89;39.66;97383.61;1737676;82;21033;-78
2022/03/24 02:01:45;;;;;;;10.72;9.25;;;;;;;6.84;40.59;97381.91;1747032;81;21004;-78
2022/03/24 02:04:11;;;;;;;12.53;9.58;;;;;;;6.81;40.54;97390.38;1735177;81;21219;-78
2022/03/24 02:06:37;;;;;;;11.28;8.78;;;;;;;6.75;40.93;97393.50;1753185;81;21003;-78
2022/03/24 02:09:04;;;;;;;11.60;9.25;;;;;;;6.69;41.31;97394.05;1757050;81;21021;-78
2022/03/24 02:11:36;;;;;;;11.38;9.23;;;;;;;6.61;41.32;97392.11;1735051;83;21084;-78
2022/03/24 02:14:03;;;;;;;11.38;9.10;;;;;;;6.54;41.02;97396.19;1733108;82;21378;-78
2022/03/24 02:16:38;;;;;;;16.23;9.95;;;;;;;6.48;41.67;97396.69;1732731;83;21084;-78
2022/03/24 02:19:22;;;;;;;14.93;8.63;;;;;;;6.39;41.58;97387.98;1732656;83;21023;-78
2022/03/24 02:21:49;;;;;;;11.35;8.53;;;;;;;6.33;41.82;97397.52;1732823;83;21104;-78
2022/03/24 02:24:17;;;;;;;15.78;10.08;;;;;;;6.27;41.57;97399.34;1734777;82;21119;-78
2022/03/24 02:26:44;;;;;;;12.47;9.78;;;;;;;6.20;42.19;97391.31;1734808;82;21458;-78
2022/03/24 02:29:11;;;;;;;13.35;8.98;;;;;;;6.15;42.29;97389.57;1735221;81;21084;-78
2022/03/24 02:31:38;;;;;;;14.90;9.68;;;;;;;6.13;42.36;97394.52;1734910;83;21033;-78
2022/03/24 02:36:53;;;;;;;15.80;11.43;;;;;;;6.05;42.77;97393.89;1733143;83;21037;-78
2022/03/24 02:39:19;;;;;;;14.40;10.50;;;;;;;5.99;42.91;97392.63;1758354;81;21506;-78
2022/03/24 02:41:49;;;;;;;14.00;10.65;;;;;;;5.95;42.33;97400.75;1763092;81;20984;-78
2022/03/24 02:44:17;;;;;;;14.03;10.25;;;;;;;5.95;41.89;97398.17;1755580;81;21028;-78
2022/03/24 02:46:46;;;;;;;16.70;12.30;;;;;;;5.93;42.51;97394.44;1716333;83;21451;-78
2022/03/24 02:49:12;;;;;;;15.38;10.70;;;;;;;5.90;42.62;97397.27;1756280;81;21004;-78
2022/03/24 02:51:37;;;;;;;14.58;11.03;;;;;;;5.87;42.94;97397.50;1744295;81;21070;-78
2022/03/24 02:54:06;;;;;;;15.35;10.90;;;;;;;5.84;42.76;97405.47;1754630;81;20967;-78
2022/03/24 02:56:31;;;;;;;17.15;12.75;;;;;;;5.82;42.74;97399.63;1751600;81;20988;-78
2022/03/24 02:58:58;;;;;;;16.75;12.90;;;;;;;5.77;43.67;97395.33;1763011;81;21019;-78
2022/03/24 03:01:25;;;;;;;18.80;12.40;;;;;;;5.72;43.40;97391.85;1688900;84;20964;-78
2022/03/24 03:03:54;;;;;;;16.48;12.88;;;;;;;5.66;43.58;97392.81;1760448;81;21028;-78
2022/03/24 03:06:20;;;;;;;16.85;13.13;;;;;;;5.63;43.71;97391.78;1753724;81;20909;-78
2022/03/24 03:08:49;;;;;;;18.32;12.65;;;;;;;5.61;44.35;97396.25;1756236;81;21375;-78
2022/03/24 03:11:22;;;;;;;17.77;12.18;;;;;;;5.56;43.71;97393.23;1764999;81;20929;-78
2022/03/24 03:13:49;;;;;;;17.15;11.33;;;;;;;5.56;43.71;97403.55;1764914;81;20992;-78
2022/03/24 03:16:15;;;;;;;19.12;13.03;;;;;;;5.52;43.68;97405.54;1736693;81;21026;-78
2022/03/24 03:18:44;;;;;;;14.98;11.35;;;;;;;5.49;44.02;97406.27;1764224;81;20999;-78
2022/03/24 03:21:11;;;;;;;15.65;11.78;;;;;;;5.45;44.48;97410.86;1669789;85;20977;-78
2022/03/24 03:23:38;;;;;;;18.73;10.82;;;;;;;5.39;44.43;97410.90;1697520;84;20985;-78
2022/03/24 03:26:08;;;;;;;18.45;13.00;;;;;;;5.35;44.50;97409.48;1696810;84;20961;-77
2022/03/24 03:28:34;;;;;;;17.57;11.95;;;;;;;5.31;45.60;97402.95;1698550;84;20993;-78
2022/03/24 03:31:00;;;;;;;17.73;12.00;;;;;;;5.26;44.98;97401.70;1694804;84;20988;-78
2022/03/24 03:33:25;;;;;;;18.70;12.58;;;;;;;5.25;44.79;97404.75;1675793;84;20957;-78
2022/03/24 03:35:52;;;;;;;18.98;12.43;;;;;;;5.23;45.00;97401.95;1696458;84;20973;-77
2022/03/24 03:38:18;;;;;;;17.77;12.18;;;;;;;5.20;45.16;97400.41;1761252;80;21004;-78
2022/03/24 03:40:45;;;;;;;18.35;12.80;;;;;;;5.15;45.60;97399.16;1747891;81;20992;-78
2022/03/24 03:43:11;;;;;;;18.50;13.15;;;;;;;5.11;45.87;97390.39;1758938;81;20976;-78
2022/03/24 03:45:38;;;;;;;16.27;12.18;;;;;;;5.08;45.54;97386.78;1674949;84;20988;-78
2022/03/24 03:48:05;;;;;;;17.90;12.33;;;;;;;5.06;44.96;97386.55;1691494;84;20977;-78
2022/03/24 03:50:32;;;;;;;19.30;14.20;;;;;;;5.07;45.33;97389.48;1731821;81;21302;-78
2022/03/24 03:52:57;;;;;;;17.92;14.00;;;;;;;5.06;45.43;97384.80;1756513;81;21035;-78
2022/03/24 03:55:23;;;;;;;21.12;13.80;;;;;;;5.07;46.03;97383.04;1758334;81;21012;-78
2022/03/24 03:57:49;;;;;;;18.65;13.22;;;;;;;5.05;46.42;97381.88;1757585;81;20933;-78
2022/03/24 04:03:03;;;;;;;19.12;14.13;;;;;;;4.99;45.65;97384.11;1750813;81;21005;-78
2022/03/24 04:05:27;;;;;;;17.05;13.00;;;;;;;4.96;46.20;97380.02;1755824;81;21382;-78
2022/03/24 04:07:53;;;;;;;21.25;14.40;;;;;;;4.94;46.13;97390.10;1760942;81;21032;-78
2022/03/24 04:10:20;;;;;;;23.70;16.17;;;;;;;4.91;45.99;97389.06;1742551;81;22105;-77
2022/03/24 04:12:46;;;;;;;22.10;14.00;;;;;;;4.87;46.41;97400.05;1756240;81;20981;-78
2022/03/24 04:15:12;;;;;;;20.82;13.70;;;;;;;4.82;46.46;97403.47;1750783;81;21723;-78
2022/03/24 04:17:38;;;;;;;21.23;14.03;;;;;;;4.78;46.11;97410.63;1745866;81;21000;-78
2022/03/24 04:20:07;;;;;;;19.92;15.15;;;;;;;4.75;46.43;97415.20;1755545;81;21016;-78
2022/03/24 04:22:32;;;;;;;19.92;14.05;;;;;;;4.72;45.96;97423.17;1758833;81;21422;-78
2022/03/24 04:24:58;;;;;;;18.05;14.07;;;;;;;4.73;46.22;97429.48;1765619;81;21004;-78
2022/03/24 04:27:24;;;;;;;23.02;15.30;;;;;;;4.70;46.25;97432.75;1760882;81;21040;-77
2022/03/24 04:29:50;;;;;;;19.42;14.63;;;;;;;4.67;45.96;97435.09;1756428;81;20976;-78
2022/03/24 04:32:16;;;;;;;24.72;14.50;;;;;;;4.65;46.31;97436.16;1759165;81;21019;-78
2022/03/24 04:34:42;;;;;;;23.45;16.25;;;;;;;4.63;46.42;97439.32;1754632;81;21375;-78
2022/03/24 04:37:08;;;;;;;21.40;14.93;;;;;;;4.59;46.44;97445.65;1752658;81;20902;-78
2022/03/24 04:39:34;;;;;;;22.17;15.72;;;;;;;4.56;46.54;97450.58;1753534;81;21004;-78
2022/03/24 04:42:00;;;;;;;18.95;13.53;;;;;;;4.52;47.25;97450.44;1745752;81;21028;-78
2022/03/24 04:44:25;;;;;;;24.12;16.95;;;;;;;4.47;47.90;97452.08;1757271;80;22164;-78
2022/03/24 04:46:51;;;;;;;20.70;15.25;;;;;;;4.44;47.68;97449.75;1760248;81;20992;-78
2022/03/24 04:49:18;;;;;;;24.67;16.05;;;;;;;4.43;48.19;97450.69;1758955;81;21020;-78
2022/03/24 04:51:44;;;;;;;22.10;16.45;;;;;;;4.38;48.10;97445.52;1756681;81;20945;-78
2022/03/24 04:54:11;;;;;;;25.60;18.05;;;;;;;4.32;48.13;97440.38;1755447;81;20934;-78
2022/03/24 04:56:36;;;;;;;24.72;17.35;;;;;;;4.25;48.69;97442.27;1757374;81;21350;-78
2022/03/24 04:59:02;;;;;;;22.10;15.63;;;;;;;4.17;48.93;97438.50;1759143;81;20957;-78
2022/03/24 05:01:29;;;;;;;21.20;15.28;;;;;;;4.15;48.59;97439.09;1755060;81;20922;-78
2022/03/24 05:03:56;;;;;;;21.48;15.98;;;;;;;4.14;48.47;97440.03;1711858;83;21128;-78
2022/03/24 05:06:22;;;;;;;23.05;16.50;;;;;;;4.11;48.82;97435.13;1757297;81;21076;-78
2022/03/24 05:08:49;;;;;;;22.80;15.15;;;;;;;4.09;48.96;97439.56;1764690;81;21029;-77
2022/03/24 05:11:15;;;;;;;21.37;15.95;;;;;;;4.08;49.34;97442.25;1683148;84;20997;-78
2022/03/24 05:13:40;;;;;;;23.70;16.23;;;;;;;4.07;49.35;97443.19;1752834;81;20976;-78
2022/03/24 05:16:06;;;;;;;25.15;17.10;;;;;;;4.05;49.57;97445.03;1744079;82;20945;-78
2022/03/24 05:18:32;;;;;;;21.33;16.30;;;;;;;4.04;49.39;97448.08;1756499;81;21470;-77
2022/03/24 05:20:58;;;;;;;18.75;14.03;;;;;;;4.04;49.43;97451.11;1751683;81;20956;-78
2022/03/24 05:23:23;;;;;;;22.82;15.18;;;;;;;4.00;49.45;97444.10;1752312;81;21034;-78
2022/03/24 05:25:49;;;;;;;20.92;15.03;;;;;;;3.98;49.83;97447.26;1762253;81;20926;-78
2022/03/24 05:28:16;;;;;;;21.95;15.65;;;;;;;3.96;49.37;97449.13;1752354;81;20997;-77
2022/03/24 05:30:42;;;;;;;22.52;14.80;;;;;;;3.95;49.56;97445.39;1755308;81;21390;-78
2022/03/24 05:33:09;;;;;;;22.62;15.25;;;;;;;3.94;49.91;97446.33;1673414;83;21024;-78
2022/03/24 05:35:35;;;;;;;22.73;15.43;;;;;;;3.94;50.04;97448.89;1681979;85;21014;-78
2022/03/24 05:38:03;;;;;;;21.05;15.08;;;;;;;3.92;50.38;97443.87;1756415;81;21048;-78
2022/03/24 05:40:29;;;;;;;21.23;14.10;;;;;;;3.94;50.53;97450.18;1755645;81;20973;-78
2022/03/24 05:42:55;;;;;;;25.37;17.00;;;;;;;3.95;50.37;97450.06;1752549;81;20973;-78
2022/03/24 05:45:21;;;;;;;23.77;15.18;;;;;;;3.98;50.23;97455.44;1750735;80;20944;-78
2022/03/24 05:47:47;;;;;;;21.23;13.90;;;;;;;4.01;50.41;97459.06;1752481;81;21017;-78
2022/03/24 05:50:13;;;;;;;20.23;15.43;;;;;;;4.02;50.63;97461.98;1754920;81;21454;-78
2022/03/24 05:52:40;;;;;;;19.75;15.05;;;;;;;4.02;50.79;97462.80;1753731;81;21063;-78
2022/03/24 05:55:08;;;;;;;21.33;15.72;;;;;;;4.04;50.99;97466.55;1756013;81;21000;-77
2022/03/24 05:57:34;;;;;;;24.02;15.10;;;;;;;4.03;51.17;97462.34;1753748;81;21005;-78
2022/03/24 06:00:01;;;;;;;21.80;15.50;;;;;;;4.04;51.48;97460.11;1755384;81;20997;-78
2022/03/24 06:02:28;;;;;;;23.35;15.53;;;;;;;4.07;51.23;97461.20;1710674;83;21001;-78
2022/03/24 06:04:54;;;;;;;20.80;14.85;;;;;;;4.12;50.83;97468.91;1754024;81;21000;-78
2022/03/24 06:07:20;;;;;;;19.60;13.85;;;;;;;4.18;51.45;97476.63;1753725;81;20953;-78
2022/03/24 06:09:46;;;;;;;19.05;13.68;;;;;;;4.21;51.38;97478.49;1757113;81;20941;-78
2022/03/24 06:12:13;;;;;;;21.48;15.23;;;;;;;4.26;51.51;97474.78;1752991;81;21367;-78
2022/03/24 06:14:40;;;;;;;20.48;14.78;;;;;;;4.31;51.71;97478.63;1756496;81;20964;-78
2022/03/24 06:17:06;;;;;;;23.18;14.70;;;;;;;4.36;51.50;97476.52;1751645;81;21032;-78
2022/03/24 06:19:34;;;;;;;21.95;15.70;;;;;;;4.41;51.20;97478.30;1749168;81;21103;-78
2022/03/24 06:22:04;;;;;;;24.98;17.30;;;;;;;4.47;51.52;97473.95;1752385;81;21024;-78
2022/03/24 06:24:32;;;;;;;21.20;16.15;;;;;;;4.56;51.07;97476.78;1748278;82;21032;-78
2022/03/24 06:26:59;;;;;;;21.48;16.02;;;;;;;4.65;51.34;97479.92;1735812;81;20995;-80
2022/03/24 06:29:24;;;;;;;22.93;16.90;;;;;;;4.74;51.41;97471.03;1741745;81;21399;-78
2022/03/24 06:31:50;;;;;;;25.88;18.15;;;;;;;4.86;51.24;97468.42;1757012;81;20930;-86
2022/03/24 06:34:16;;;;;;;30.08;22.32;;;;;;;4.97;50.41;97470.98;1745977;81;20921;-77
2022/03/24 06:36:42;;;;;;;33.20;23.60;;;;;;;5.10;49.77;97469.09;1743727;81;21012;-78
2022/03/24 06:39:08;;;;;;;27.10;20.48;;;;;;;5.24;49.30;97478.31;1737971;81;20968;-78
2022/03/24 06:41:34;;;;;;;27.42;18.02;;;;;;;5.37;50.75;97478.98;1749213;81;21115;-78
2022/03/24 06:44:00;;;;;;;28.95;20.05;;;;;;;5.43;50.84;97485.73;1745680;81;21048;-81
2022/03/24 06:46:27;;;;;;;34.90;24.05;;;;;;;5.50;50.70;97484.77;1733807;81;20985;-79
2022/03/24 06:48:53;;;;;;;33.15;24.65;;;;;;;5.57;50.24;97483.34;1763570;81;21399;-80
2022/03/24 06:51:19;;;;;;;33.78;26.12;;;;;;;5.67;49.68;97481.64;1751313;81;20964;-79
2022/03/24 06:53:45;;;;;;;35.05;25.02;;;;;;;5.77;48.73;97485.59;1747095;81;21035;-78
2022/03/24 06:56:11;;;;;;;38.90;26.25;;;;;;;5.87;48.75;97486.50;1747729;82;20946;-79
2022/03/24 06:58:36;;;;;;;34.08;26.55;;;;;;;5.97;48.70;97491.73;1747044;82;20945;-78
2022/03/24 07:01:03;;;;;;;33.08;22.80;;;;;;;6.07;48.64;97495.20;1746788;82;21299;-80
2022/03/24 07:03:30;;;;;;;36.33;26.82;;;;;;;6.18;49.41;97491.72;1744797;81;20975;-78
2022/03/24 07:05:56;;;;;;;33.50;26.27;;;;;;;6.24;48.48;97495.92;1738510;81;20973;-78
2022/03/24 07:08:26;;;;;;;34.27;26.12;;;;;;;6.35;48.07;97494.22;1742675;81;21107;-78
2022/03/24 07:10:52;;;;;;;35.25;26.07;;;;;;;6.46;48.99;97494.11;1746921;81;21004;-79
2022/03/24 07:13:18;;;;;;;36.28;27.80;;;;;;;6.55;48.20;97494.17;1746105;81;21331;-78
2022/03/24 07:15:43;;;;;;;37.05;29.23;;;;;;;6.67;48.32;97496.64;1763177;81;20979;-78
2022/03/24 07:18:10;;;;;;;39.08;29.50;;;;;;;6.78;47.42;97499.14;1759412;81;21035;-79
2022/03/24 07:20:38;;;;;;;42.95;31.93;;;;;;;6.88;47.27;97502.11;1736435;81;21020;-80
2022/03/24 07:23:06;;;;;;;44.40;31.20;;;;;;;6.99;47.06;97501.17;1737660;81;20977;-76
2022/03/24 07:25:32;;;;;;;38.15;30.43;;;;;;;7.09;46.43;97496.86;1750539;81;22076;-78
2022/03/24 07:27:59;;;;;;;44.15;31.75;;;;;;;7.19;46.08;97499.48;1750887;81;20910;-78
2022/03/24 07:30:25;;;;;;;40.30;29.75;;;;;;;7.29;45.52;97500.29;1738414;81;21031;-78
2022/03/24 07:32:54;;;;;;;36.38;27.77;;;;;;;7.40;45.87;97503.24;1738514;81;21011;-79
2022/03/24 07:35:19;;;;;;;43.83;31.52;;;;;;;7.52;46.10;97501.70;1688726;83;20968;-77
2022/03/24 07:37:50;;;;;;;37.42;29.45;;;;;;;7.63;45.51;97496.03;1735112;81;20988;-78
2022/03/24 07:40:18;;;;;;;40.70;31.02;;;;;;;7.74;45.04;97500.61;1752162;81;20949;-78
2022/03/24 07:42:46;;;;;;;40.43;31.60;;;;;;;7.87;44.55;97504.22;1754541;81;21034;-77
2022/03/24 07:45:12;;;;;;;43.13;31.40;;;;;;;7.98;44.41;97500.67;1755613;81;21376;-78
2022/03/24 07:48:17;;;;;;;42.80;31.23;;;;;;;8.07;44.80;97498.06;1753606;81;21008;-76
2022/03/24 07:50:48;;;;;;;44.53;32.23;;;;;;;8.18;44.78;97500.16;1749131;81;20977;-77
2022/03/24 07:53:31;;;;;;;38.92;30.15;;;;;;;8.29;44.78;97496.91;1758284;81;21020;-77
2022/03/24 07:55:58;;;;;;;44.42;33.13;;;;;;;8.37;44.47;97495.78;1677903;84;21355;-77
2022/03/24 07:58:24;;;;;;;45.45;33.38;;;;;;;8.47;43.70;97489.29;1743414;81;21035;-77
2022/03/24 08:00:50;;;;;;;35.75;25.65;;;;;;;8.55;43.18;97491.16;1747408;82;20936;-77
2022/03/24 08:03:18;;;;;;;43.98;31.77;;;;;;;8.58;42.82;97486.98;1748774;81;21095;-78
2022/03/24 08:05:44;;;;;;;45.33;35.23;;;;;;;8.65;43.23;97488.06;1748866;81;21327;-77
2022/03/24 08:08:11;;;;;;;41.80;31.33;;;;;;;8.76;43.92;97483.97;1744244;81;21048;-77
2022/03/24 08:10:40;;;;;;;40.78;32.17;;;;;;;8.88;43.40;97494.50;1758544;81;21375;-76
2022/03/24 08:13:06;;;;;;;44.50;32.85;;;;;;;8.99;43.35;97490.42;1753209;81;21411;-77
2022/03/24 08:15:34;;;;;;;43.52;32.78;;;;;;;9.11;43.41;97488.91;1748685;81;21028;-77
2022/03/24 08:17:59;;;;;;;41.63;32.63;;;;;;;9.20;42.96;97488.86;1699809;81;21447;-77
2022/03/24 08:20:25;;;;;;;43.63;33.35;;;;;;;9.30;42.89;97483.63;1745439;81;20983;-77
2022/03/24 08:22:52;;;;;;;45.05;34.65;;;;;;;9.36;42.72;97482.22;1736382;81;21072;-78
2022/03/24 08:25:19;;;;;;;48.65;33.83;;;;;;;9.44;42.68;97483.61;1749908;81;22168;-77
2022/03/24 08:27:45;;;;;;;41.83;31.35;;;;;;;9.52;42.49;97483.67;1747767;81;21001;-77
2022/03/24 08:30:12;;;;;;;42.27;32.70;;;;;;;9.62;42.62;97482.64;1745756;81;21052;-79
2022/03/24 08:32:39;;;;;;;46.77;34.78;;;;;;;9.73;42.45;97483.36;1733814;81;21028;-77
2022/03/24 08:35:06;;;;;;;43.85;32.58;;;;;;;9.81;42.51;97479.07;1745343;82;20968;-76
2022/03/24 08:37:31;;;;;;;44.40;32.80;;;;;;;9.93;42.22;97486.96;1746247;81;20971;-76
2022/03/24 08:39:57;;;;;;;50.78;35.65;;;;;;;10.02;42.03;97488.31;1749147;81;20996;-76
2022/03/24 08:42:23;;;;;;;39.53;32.35;;;;;;;10.10;41.66;97490.98;1766501;81;21037;-76
2022/03/24 08:44:49;;;;;;;43.50;32.50;;;;;;;10.16;41.54;97492.47;1747065;81;21040;-76
2022/03/24 08:47:15;;;;;;;45.85;34.10;;;;;;;10.22;40.93;97497.08;1746434;81;21091;-77
2022/03/24 08:49:41;;;;;;;43.13;33.00;;;;;;;10.29;41.24;97503.80;1745938;81;21367;-76
2022/03/24 08:52:09;;;;;;;44.80;31.37;;;;;;;10.40;41.05;97509.20;1735714;81;21027;-76
2022/03/24 08:54:35;;;;;;;49.08;35.35;;;;;;;10.51;41.91;97507.17;1705472;83;21108;-76
2022/03/24 08:57:01;;;;;;;42.88;30.52;;;;;;;10.63;40.79;97509.52;1707150;84;21054;-77
2022/03/24 08:59:27;;;;;;;40.65;29.98;;;;;;;10.68;40.41;97506.78;1706701;84;21357;-76
2022/03/24 09:01:52;;;;;;;42.13;32.03;;;;;;;10.82;40.02;97514.00;1716799;81;20984;-77
2022/03/24 09:04:20;;;;;;;37.20;27.13;;;;;;;10.94;40.27;97507.23;1736960;81;20947;-77
2022/03/24 09:06:48;;;;;;;43.45;32.67;;;;;;;11.06;40.08;97515.91;1743163;82;21358;-77
2022/03/24 09:09:14;;;;;;;39.48;30.62;;;;;;;11.15;40.22;97515.44;1687563;84;21171;-77
2022/03/24 09:11:40;;;;;;;31.70;24.63;;;;;;;11.21;39.19;97503.09;1743465;82;21409;-77
2022/03/24 09:14:05;;;;;;;42.95;30.37;;;;;;;11.26;39.33;97509.14;1743143;82;21008;-77
2022/03/24 09:16:32;;;;;;;41.10;31.20;;;;;;;11.35;39.40;97510.78;1743273;82;21036;-77
2022/03/24 09:18:57;;;;;;;36.05;27.15;;;;;;;11.38;38.79;97509.97;1743634;82;21322;-76
2022/03/24 09:21:23;;;;;;;44.45;31.02;;;;;;;11.37;38.73;97509.64;1743397;81;20956;-77
2022/03/24 09:23:49;;;;;;;36.93;29.85;;;;;;;11.43;38.70;97514.72;1743197;81;20996;-77
2022/03/24 09:26:14;;;;;;;44.88;31.35;;;;;;;11.45;38.17;97509.34;1743326;81;21358;-77
2022/03/24 09:28:40;;;;;;;36.03;26.75;;;;;;;11.49;38.29;97504.14;1743279;82;20964;-77
2022/03/24 09:31:06;;;;;;;42.67;29.52;;;;;;;11.56;38.22;97509.05;1743260;82;20992;-77
2022/03/24 09:33:32;;;;;;;34.85;26.30;;;;;;;11.60;37.44;97505.15;1743372;82;20983;-77
2022/03/24 09:35:58;;;;;;;38.15;28.70;;;;;;;11.67;36.78;97511.33;1743323;82;21434;-77
2022/03/24 09:38:24;;;;;;;41.15;31.82;;;;;;;11.75;36.31;97517.86;1743269;81;20928;-77
2022/03/24 09:40:51;;;;;;;43.98;31.60;;;;;;;11.77;37.29;97513.80;1743419;82;20964;-77
2022/03/24 09:43:18;;;;;;;46.92;32.95;;;;;;;11.82;37.93;97518.86;1743147;82;21354;-76
2022/03/24 09:45:46;;;;;;;45.38;32.75;;;;;;;11.88;36.96;97523.45;1743233;82;20956;-77
2022/03/24 09:48:12;;;;;;;48.68;32.88;;;;;;;11.85;37.06;97522.44;1721748;82;20991;-77
2022/03/24 09:50:38;;;;;;;45.25;33.83;;;;;;;11.91;38.43;97524.91;1743501;82;20979;-77
2022/03/24 09:53:06;;;;;;;43.15;31.87;;;;;;;12.00;37.92;97518.70;1742470;82;22105;-77
2022/03/24 09:55:36;;;;;;;44.08;32.60;;;;;;;12.04;37.29;97521.34;1741166;82;20987;-77
2022/03/24 09:58:00;;;;;;;45.60;35.58;;;;;;;12.10;37.96;97523.28;1740129;82;20992;-77
2022/03/24 10:00:26;;;;;;;35.60;26.25;;;;;;;12.18;37.71;97519.84;1740927;82;21358;-77
2022/03/24 10:03:14;;;;;;;35.45;25.25;;;;;;;12.24;36.49;97529.63;1752576;81;20953;-77
2022/03/24 10:06:07;;;;;;;37.58;23.87;;;;;;;12.32;34.68;97523.09;1763755;81;20981;-77
2022/03/24 10:08:35;;;;;;;37.85;24.65;;;;;;;12.31;35.55;97524.88;1763924;81;21108;-77
2022/03/24 10:11:09;;;;;;;27.60;21.50;;;;;;;12.37;35.51;97526.04;1682670;84;21435;-76
2022/03/24 10:13:49;;;;;;;36.20;25.92;;;;;;;12.44;33.89;97522.27;1762730;81;20993;-77
2022/03/24 10:16:41;;;;;;;32.30;22.45;;;;;;;12.41;35.23;97524.72;1683234;84;21047;-77
2022/03/24 10:19:16;;;;;;;27.13;20.65;;;;;;;12.51;35.13;97524.03;1766376;81;20973;-77
2022/03/24 10:21:48;;;;;;;37.33;25.05;;;;;;;12.60;35.14;97521.75;1766849;81;20993;-77
2022/03/24 10:24:17;;;;;;;27.32;20.65;;;;;;;12.74;35.55;97527.27;1766849;81;21124;-77
2022/03/24 10:27:00;;;;;;;24.23;16.67;;;;;;;12.81;34.51;97528.21;1683406;85;21091;-77
2022/03/24 10:29:23;;;;;;;25.88;18.60;;;;;;;12.86;33.82;97520.72;1764449;81;21020;-77
2022/03/24 10:31:59;;;;;;;31.73;21.15;;;;;;;12.99;34.54;97528.80;1770386;81;20988;-77
2022/03/24 10:34:38;;;;;;;28.55;18.45;;;;;;;13.01;33.40;97522.11;1763498;81;20980;-77
2022/03/24 10:37:13;;;;;;;27.45;16.97;;;;;;;12.90;32.54;97520.70;1763604;81;21081;-77
2022/03/24 10:40:05;;;;;;;31.45;21.55;;;;;;;12.90;32.29;97522.81;1763570;81;21056;-77
2022/03/24 10:42:35;;;;;;;28.85;17.85;;;;;;;12.92;32.96;97520.84;1747973;82;21374;-77
2022/03/24 10:45:21;;;;;;;22.73;17.10;;;;;;;13.04;32.18;97528.31;1747797;82;20980;-77
2022/03/24 10:47:56;;;;;;;28.10;20.02;;;;;;;13.00;32.41;97513.47;1736060;82;21028;-77
2022/03/24 10:50:40;;;;;;;23.83;17.12;;;;;;;13.10;32.41;97521.11;1733906;82;21012;-76
2022/03/24 10:53:16;;;;;;;28.00;19.32;;;;;;;13.12;31.94;97518.64;1733581;82;21092;-77
2022/03/24 10:56:00;;;;;;;28.98;20.55;;;;;;;13.12;32.73;97521.25;1733764;82;21491;-77
2022/03/24 10:58:38;;;;;;;32.48;22.13;;;;;;;13.19;32.30;97518.83;1734031;83;21384;-77
2022/03/24 11:01:09;;;;;;;32.78;22.05;;;;;;;13.15;32.48;97520.09;1733644;83;20985;-77
2022/03/24 11:03:35;;;;;;;30.27;21.37;;;;;;;13.20;32.61;97519.95;1734802;82;21380;-77
2022/03/24 11:06:13;;;;;;;22.48;15.65;;;;;;;13.28;32.25;97511.75;1759132;81;20962;-77
2022/03/24 11:08:41;;;;;;;25.75;18.02;;;;;;;13.28;31.55;97515.17;1763931;81;21453;-77
2022/03/24 11:11:10;;;;;;;21.42;17.37;;;;;;;13.32;32.57;97507.81;1763921;81;21107;-77
2022/03/24 11:13:54;;;;;;;29.50;21.93;;;;;;;13.35;31.88;97505.70;1764170;81;20981;-77
2022/03/24 11:16:24;;;;;;;29.35;20.35;;;;;;;13.32;31.86;97502.59;1763917;81;21487;-77
2022/03/24 11:18:51;;;;;;;33.85;21.15;;;;;;;13.36;33.02;97503.89;1764087;81;21043;-77
2022/03/24 11:21:33;;;;;;;24.80;18.25;;;;;;;13.50;32.37;97506.59;1687567;85;21043;-77
2022/03/24 11:23:58;;;;;;;;;;;;;;;13.60;32.04;97501.62;1766782;81;21091;-77
2022/03/24 11:26:25;;;;;;;21.70;17.17;;;;;;;13.69;31.70;97497.98;1764038;81;20306;-77
2022/03/24 11:28:56;;;;;;;29.77;17.40;;;;;;;13.56;31.37;97492.52;1763990;81;21335;-77
2022/03/24 11:31:23;;;;;;;28.67;21.42;;;;;;;13.60;30.10;97497.70;1764031;81;21422;-77
2022/03/24 11:33:54;;;;;;;24.77;17.37;;;;;;;13.58;30.27;97494.45;1676008;85;21862;-77
2022/03/24 11:36:21;;;;;;;23.32;15.90;;;;;;;13.48;30.33;97503.31;1763921;81;21001;-77